createdAt,value
2023-03-03T00:02:05.937Z,21.80
2023-03-03T00:04:32.318Z,21.67
2023-03-03T00:06:58.683Z,23.50
2023-03-03T00:09:25.024Z,21.13
2023-03-03T00:11:56.040Z,21.97
2023-03-03T00:14:28.563Z,21.07
2023-03-03T00:16:56.545Z,21.90
2023-03-03T00:19:23.416Z,21.27
2023-03-03T00:21:51.455Z,20.27
2023-03-03T00:24:24.418Z,19.77
2023-03-03T00:26:56.141Z,20.23
2023-03-03T00:29:45.722Z,21.07
2023-03-03T00:32:12.076Z,21.13
2023-03-03T00:34:38.458Z,20.90
2023-03-03T00:37:27.759Z,21.20
2023-03-03T00:39:58.571Z,19.67
2023-03-03T00:42:27.716Z,20.60
2023-03-03T00:45:37.290Z,21.40
2023-03-03T00:48:29.978Z,20.43
2023-03-03T00:50:58.669Z,20.90
2023-03-03T00:53:30.279Z,21.10
2023-03-03T00:55:57.417Z,20.20
2023-03-03T00:58:24.740Z,19.20
2023-03-03T01:00:53.705Z,20.43
2023-03-03T01:03:22.760Z,20.20
2023-03-03T01:05:49.827Z,20.67
2023-03-03T01:08:16.557Z,21.97
2023-03-03T01:10:50.966Z,20.53
2023-03-03T01:13:20.612Z,19.53
2023-03-03T01:15:47.043Z,21.43
2023-03-03T01:18:14.227Z,21.70
2023-03-03T01:20:41.435Z,21.80
2023-03-03T01:23:08.391Z,20.23
2023-03-03T01:25:35.076Z,19.63
2023-03-03T01:28:01.450Z,21.53
2023-03-03T01:30:27.864Z,21.03
2023-03-03T01:32:54.440Z,20.53
2023-03-03T01:35:21.185Z,20.50
2023-03-03T01:37:47.641Z,21.70
2023-03-03T01:40:23.678Z,20.03
2023-03-03T01:42:50.085Z,21.60
2023-03-03T01:45:26.291Z,21.13
2023-03-03T01:48:06.402Z,19.33
2023-03-03T01:50:47.773Z,21.23
2023-03-03T01:53:23.925Z,22.67
2023-03-03T01:55:51.957Z,23.23
2023-03-03T01:58:46.814Z,23.63
2023-03-03T02:01:20.789Z,21.27
2023-03-03T02:03:48.385Z,23.90
2023-03-03T02:06:18.292Z,21.90
2023-03-03T02:08:53.622Z,22.77
2023-03-03T02:11:21.578Z,22.63
2023-03-03T02:13:48.144Z,20.73
2023-03-03T02:16:15.012Z,23.00
2023-03-03T02:18:41.403Z,22.40
2023-03-03T02:21:14.353Z,22.00
2023-03-03T02:24:27.611Z,22.67
2023-03-03T02:26:54.131Z,21.10
2023-03-03T02:29:20.665Z,22.43
2023-03-03T02:31:47.135Z,21.73
2023-03-03T02:34:13.551Z,21.27
2023-03-03T02:36:40.031Z,22.23
2023-03-03T02:39:10.718Z,23.40
2023-03-03T02:41:51.317Z,21.90
2023-03-03T02:44:20.261Z,22.23
2023-03-03T02:46:48.309Z,21.33
2023-03-03T02:49:17.160Z,22.10
2023-03-03T02:51:43.694Z,20.93
2023-03-03T02:54:12.990Z,22.50
2023-03-03T02:56:39.978Z,23.60
2023-03-03T02:59:07.489Z,22.93
2023-03-03T03:01:37.092Z,25.33
2023-03-03T03:04:09.402Z,23.17
2023-03-03T03:06:36.267Z,22.67
2023-03-03T03:09:03.300Z,22.93
2023-03-03T03:11:29.712Z,26.90
2023-03-03T03:13:56.067Z,25.20
2023-03-03T03:16:22.509Z,24.47
2023-03-03T03:18:50.614Z,22.67
2023-03-03T03:21:17.067Z,24.13
2023-03-03T03:23:43.440Z,24.67
2023-03-03T03:26:10.102Z,22.60
2023-03-03T03:28:36.936Z,22.17
2023-03-03T03:31:05.063Z,23.03
2023-03-03T03:33:31.509Z,22.00
2023-03-03T03:35:59.740Z,23.80
2023-03-03T03:38:27.271Z,22.50
2023-03-03T03:40:54.383Z,25.87
2023-03-03T03:43:20.775Z,23.53
2023-03-03T03:45:47.166Z,23.73
2023-03-03T03:48:13.814Z,24.23
2023-03-03T03:50:40.202Z,25.23
2023-03-03T03:53:07.062Z,25.97
2023-03-03T03:55:33.734Z,25.33
2023-03-03T03:58:00.225Z,26.47
2023-03-03T04:00:26.637Z,26.73
2023-03-03T04:02:53.098Z,24.97
2023-03-03T04:05:19.524Z,22.03
2023-03-03T04:07:45.888Z,23.70
2023-03-03T04:10:12.472Z,21.23
2023-03-03T04:12:38.840Z,24.23
2023-03-03T04:15:13.733Z,20.33
2023-03-03T04:17:40.420Z,21.03
2023-03-03T04:20:07.667Z,18.37
2023-03-03T04:22:35.963Z,18.43
2023-03-03T04:25:05.119Z,19.77
2023-03-03T04:27:32.995Z,20.50
2023-03-03T04:29:59.427Z,22.27
2023-03-03T04:32:26.246Z,21.77
2023-03-03T04:35:05.626Z,22.20
2023-03-03T04:37:34.127Z,22.07
2023-03-03T04:40:00.685Z,25.37
2023-03-03T04:42:28.116Z,24.97
2023-03-03T04:44:54.883Z,22.83
2023-03-03T04:47:21.250Z,29.83
2023-03-03T04:49:47.637Z,27.87
2023-03-03T04:52:14.006Z,27.07
2023-03-03T04:54:40.525Z,22.37
2023-03-03T04:57:07.824Z,24.10
2023-03-03T04:59:34.259Z,21.87
2023-03-03T05:02:00.633Z,25.73
2023-03-03T05:04:27.017Z,23.37
2023-03-03T05:06:53.394Z,22.23
2023-03-03T05:09:19.779Z,23.43
2023-03-03T05:11:46.144Z,24.70
2023-03-03T05:14:12.510Z,25.27
2023-03-03T05:16:38.866Z,28.67
2023-03-03T05:19:05.255Z,27.47
2023-03-03T05:21:31.631Z,26.63
2023-03-03T05:23:58.011Z,29.50
2023-03-03T05:26:24.387Z,32.30
2023-03-03T05:28:50.746Z,32.53
2023-03-03T05:31:17.178Z,31.87
2023-03-03T05:33:43.547Z,30.20
2023-03-03T05:36:09.918Z,30.33
2023-03-03T05:38:36.283Z,28.90
2023-03-03T05:41:02.638Z,27.17
2023-03-03T05:43:29.317Z,25.47
2023-03-03T05:45:59.046Z,26.20
2023-03-03T05:48:25.447Z,26.00
2023-03-03T05:50:52.168Z,23.83
2023-03-03T05:53:18.595Z,19.10
2023-03-03T05:55:44.979Z,20.47
2023-03-03T05:58:12.051Z,18.27
2023-03-03T06:00:38.586Z,21.00
2023-03-03T06:03:04.984Z,22.30
2023-03-03T06:05:31.421Z,22.43
2023-03-03T06:07:57.857Z,24.93
2023-03-03T06:10:24.785Z,24.50
2023-03-03T06:12:51.613Z,23.63
2023-03-03T06:15:18.273Z,18.23
2023-03-03T06:17:44.647Z,19.17
2023-03-03T06:20:11.636Z,17.57
2023-03-03T06:22:38.026Z,19.03
2023-03-03T06:25:04.747Z,18.77
2023-03-03T06:27:31.256Z,20.17
2023-03-03T06:29:57.670Z,18.53
2023-03-03T06:32:24.048Z,19.53
2023-03-03T06:34:50.481Z,17.83
2023-03-03T06:37:17.041Z,17.20
2023-03-03T06:39:43.425Z,18.87
2023-03-03T06:42:09.850Z,21.30
2023-03-03T06:44:36.353Z,21.83
2023-03-03T06:47:02.731Z,20.53
2023-03-03T06:49:29.117Z,29.67
2023-03-03T06:51:56.388Z,25.50
2023-03-03T06:54:30.750Z,26.00
2023-03-03T06:57:08.927Z,26.50
2023-03-03T06:59:35.298Z,27.27
2023-03-03T07:02:01.973Z,26.90
2023-03-03T07:04:31.769Z,25.90
2023-03-03T07:07:00.166Z,23.50
2023-03-03T07:09:29.123Z,22.20
2023-03-03T07:12:06.726Z,23.10
2023-03-03T07:14:35.145Z,21.00
2023-03-03T07:17:05.066Z,21.93
2023-03-03T07:19:36.006Z,25.93
2023-03-03T07:22:14.881Z,24.03
2023-03-03T07:24:42.318Z,21.67
2023-03-03T07:27:37.991Z,24.37
2023-03-03T07:30:16.174Z,23.20
2023-03-03T07:32:46.166Z,24.27
2023-03-03T07:35:47.246Z,23.10
2023-03-03T07:38:24.603Z,21.90
2023-03-03T07:40:57.031Z,22.83
2023-03-03T07:43:31.253Z,22.57
2023-03-03T07:46:36.418Z,20.80
2023-03-03T07:49:20.564Z,21.20
2023-03-03T07:51:47.006Z,21.20
2023-03-03T07:54:35.149Z,20.73
2023-03-03T07:57:33.966Z,21.03
2023-03-03T08:00:20.583Z,20.73
2023-03-03T08:03:00.531Z,22.50
2023-03-03T08:05:40.011Z,21.07
2023-03-03T08:08:09.063Z,23.07
2023-03-03T08:10:49.107Z,24.77
2023-03-03T08:13:21.826Z,23.60
2023-03-03T08:16:02.526Z,22.73
2023-03-03T08:18:34.384Z,22.97
2023-03-03T08:21:07.175Z,24.13
2023-03-03T08:23:33.537Z,22.67
2023-03-03T08:26:00.052Z,22.17
2023-03-03T08:28:26.433Z,25.10
2023-03-03T08:31:02.656Z,25.03
2023-03-03T08:33:32.578Z,22.77
2023-03-03T08:35:59.406Z,20.80
2023-03-03T08:38:26.265Z,21.83
2023-03-03T08:40:52.673Z,24.97
2023-03-03T08:43:21.566Z,20.10
2023-03-03T08:45:49.841Z,20.30
2023-03-03T08:48:16.763Z,23.47
2023-03-03T08:50:44.261Z,26.63
2023-03-03T08:53:12.696Z,27.53
2023-03-03T08:55:39.574Z,31.77
2023-03-03T08:58:06.363Z,28.37
2023-03-03T09:00:32.940Z,24.23
2023-03-03T09:02:59.315Z,22.43
2023-03-03T09:05:27.270Z,34.97
2023-03-03T09:07:55.220Z,38.63
2023-03-03T09:10:27.490Z,34.00
2023-03-03T09:12:56.617Z,34.67
2023-03-03T09:15:25.476Z,35.73
2023-03-03T09:17:52.347Z,30.53
2023-03-03T09:20:37.450Z,26.63
2023-03-03T09:23:34.944Z,28.33
2023-03-03T09:26:39.013Z,28.40
2023-03-03T09:29:14.500Z,29.83
2023-03-03T09:31:47.791Z,29.20
2023-03-03T09:34:42.420Z,29.40
2023-03-03T09:37:32.416Z,29.53
2023-03-03T09:39:58.995Z,38.33
2023-03-03T09:42:42.774Z,31.73
2023-03-03T09:45:40.108Z,23.10
2023-03-03T09:48:12.653Z,22.67
2023-03-03T09:50:53.048Z,24.83
2023-03-03T09:53:33.753Z,26.50
2023-03-03T09:56:30.348Z,25.53
2023-03-03T09:59:31.637Z,27.67
2023-03-03T10:02:16.837Z,24.60
2023-03-03T10:04:59.995Z,23.70
2023-03-03T10:07:35.614Z,22.20
2023-03-03T10:10:23.789Z,28.40
2023-03-03T10:13:41.499Z,24.17
2023-03-03T10:16:36.243Z,21.57
2023-03-03T10:19:15.019Z,24.07
2023-03-03T10:22:01.419Z,25.00
2023-03-03T10:24:31.820Z,27.33
2023-03-03T10:27:45.104Z,24.53
2023-03-03T10:30:48.520Z,23.13
2023-03-03T10:33:37.375Z,26.57
2023-03-03T10:36:30.492Z,27.03
2023-03-03T10:39:26.861Z,24.50
2023-03-03T10:42:24.785Z,24.90
2023-03-03T10:44:56.685Z,21.67
2023-03-03T10:47:45.926Z,21.07
2023-03-03T10:50:21.536Z,18.37
2023-03-03T10:53:15.986Z,22.77
2023-03-03T10:55:57.806Z,21.07
2023-03-03T10:58:40.913Z,20.40
2023-03-03T11:01:26.772Z,21.43
2023-03-03T11:04:19.509Z,19.40
2023-03-03T11:07:11.405Z,19.33
2023-03-03T11:09:50.730Z,18.87
2023-03-03T11:12:47.223Z,20.07
2023-03-03T11:15:20.673Z,17.70
2023-03-03T11:18:15.385Z,19.47
2023-03-03T11:21:12.634Z,22.93
2023-03-03T11:24:18.077Z,26.03
2023-03-03T11:27:06.801Z,32.67
2023-03-03T11:29:51.218Z,23.50
2023-03-03T11:32:29.736Z,24.80
2023-03-03T11:35:19.520Z,23.17
2023-03-03T11:38:02.134Z,20.97
2023-03-03T11:40:37.862Z,26.97
2023-03-03T11:43:18.574Z,23.30
2023-03-03T11:45:59.857Z,20.53
2023-03-03T11:48:42.421Z,28.77
2023-03-03T11:51:19.717Z,30.47
2023-03-03T11:53:59.389Z,28.03
2023-03-03T11:56:41.272Z,30.90
2023-03-03T11:59:33.400Z,29.83
2023-03-03T12:02:28.527Z,30.47
2023-03-03T12:05:19.568Z,30.63
2023-03-03T12:08:08.260Z,26.83
2023-03-03T12:11:08.942Z,31.93
2023-03-03T12:14:01.638Z,32.90
2023-03-03T12:16:42.822Z,31.37
2023-03-03T12:19:31.057Z,33.87
2023-03-03T12:22:29.593Z,41.43
2023-03-03T12:25:15.303Z,45.60
2023-03-03T12:27:49.264Z,38.87
2023-03-03T12:30:21.649Z,27.77
2023-03-03T12:33:07.371Z,30.37
2023-03-03T12:35:57.299Z,30.47
2023-03-03T12:38:51.776Z,33.63
2023-03-03T12:41:29.883Z,28.83
2023-03-03T12:44:07.104Z,27.47
2023-03-03T12:46:59.786Z,28.00
2023-03-03T12:49:43.463Z,33.63
2023-03-03T12:52:53.094Z,32.20
2023-03-03T12:55:42.684Z,29.10
2023-03-03T12:58:35.365Z,31.70
2023-03-03T13:01:20.161Z,30.03
2023-03-03T13:03:57.547Z,27.03
2023-03-03T13:06:32.209Z,24.63
2023-03-03T13:09:37.258Z,23.67
2023-03-03T13:12:18.873Z,23.77
2023-03-03T13:15:08.723Z,23.37
2023-03-03T13:18:03.938Z,22.53
2023-03-03T13:20:53.814Z,23.20
2023-03-03T13:23:44.619Z,26.67
2023-03-03T13:26:20.123Z,24.73
2023-03-03T13:28:58.692Z,25.70
2023-03-03T13:31:32.903Z,26.37
2023-03-03T13:34:01.985Z,23.30
2023-03-03T13:36:39.012Z,24.80
2023-03-03T13:39:17.900Z,25.03
2023-03-03T13:41:56.971Z,26.37
2023-03-03T13:44:42.802Z,23.33
2023-03-03T13:47:36.146Z,25.77
2023-03-03T13:50:22.549Z,24.20
2023-03-03T13:53:04.996Z,25.40
2023-03-03T13:55:41.027Z,29.70
2023-03-03T13:58:38.298Z,26.27
2023-03-03T14:01:13.613Z,24.80
2023-03-03T14:03:40.008Z,25.60
2023-03-03T14:06:14.884Z,25.00
2023-03-03T14:09:22.541Z,23.87
2023-03-03T14:12:21.718Z,22.07
2023-03-03T14:14:55.696Z,21.80
2023-03-03T14:17:34.660Z,21.60
2023-03-03T14:20:15.718Z,22.23
2023-03-03T14:22:45.757Z,22.27
2023-03-03T14:25:14.815Z,20.83
2023-03-03T14:27:44.461Z,20.57
2023-03-03T14:30:23.773Z,19.07
2023-03-03T14:33:09.746Z,23.23
2023-03-03T14:35:42.468Z,20.00
2023-03-03T14:38:08.830Z,19.83
2023-03-03T14:40:38.953Z,24.50
2023-03-03T14:43:39.136Z,25.47
2023-03-03T14:46:27.707Z,29.63
2023-03-03T14:48:57.613Z,24.90
2023-03-03T14:51:28.990Z,23.87
2023-03-03T14:53:57.400Z,24.07
2023-03-03T14:56:31.220Z,24.23
2023-03-03T14:59:18.741Z,22.87
2023-03-03T15:01:46.047Z,23.93
2023-03-03T15:04:15.378Z,20.00
2023-03-03T15:06:55.402Z,20.30
2023-03-03T15:09:43.205Z,19.93
2023-03-03T15:12:36.235Z,19.13
2023-03-03T15:15:26.814Z,19.90
2023-03-03T15:17:58.070Z,19.70
2023-03-03T15:20:52.770Z,18.90
2023-03-03T15:23:37.938Z,19.80
2023-03-03T15:26:32.430Z,19.00
2023-03-03T15:29:17.290Z,19.40
2023-03-03T15:32:20.089Z,18.60
2023-03-03T15:35:14.363Z,18.90
2023-03-03T15:37:47.130Z,20.47
2023-03-03T15:40:37.971Z,19.30
2023-03-03T15:43:27.144Z,19.23
2023-03-03T15:46:13.772Z,18.50
2023-03-03T15:48:58.201Z,19.43
2023-03-03T15:51:50.714Z,19.30
2023-03-03T15:54:42.261Z,18.63
2023-03-03T15:57:35.017Z,18.90
2023-03-03T16:00:22.202Z,19.13
2023-03-03T16:02:59.099Z,18.50
2023-03-03T16:05:31.531Z,18.93
2023-03-03T16:08:00.931Z,19.00
2023-03-03T16:11:03.886Z,19.17
2023-03-03T16:14:02.198Z,17.93
2023-03-03T16:16:54.362Z,17.67
2023-03-03T16:19:38.664Z,18.57
2023-03-03T16:22:24.104Z,18.13
2023-03-03T16:25:16.471Z,18.47
2023-03-03T16:28:10.117Z,17.77
2023-03-03T16:31:10.923Z,18.20
2023-03-03T16:33:50.807Z,19.97
2023-03-03T16:36:37.041Z,17.90
2023-03-03T16:39:23.148Z,19.73
2023-03-03T16:42:00.443Z,19.40
2023-03-03T16:44:49.309Z,18.83
2023-03-03T16:47:35.891Z,19.43
2023-03-03T16:50:26.340Z,19.23
2023-03-03T16:53:17.526Z,18.53
2023-03-03T16:56:09.800Z,20.33
2023-03-03T16:58:58.628Z,19.93
2023-03-03T17:01:29.523Z,25.90
2023-03-03T17:04:00.707Z,19.80
2023-03-03T17:06:36.514Z,19.87
2023-03-03T17:09:32.218Z,19.20
2023-03-03T17:12:25.870Z,20.13
2023-03-03T17:15:22.197Z,21.47
2023-03-03T17:18:00.500Z,19.83
2023-03-03T17:20:46.048Z,22.00
2023-03-03T17:23:41.310Z,19.57
2023-03-03T17:26:30.745Z,18.80
2023-03-03T17:29:15.269Z,20.07
2023-03-03T17:32:08.440Z,19.73
2023-03-03T17:34:47.987Z,20.27
2023-03-03T17:37:44.065Z,21.33
2023-03-03T17:40:35.827Z,20.70
2023-03-03T17:43:29.636Z,19.33
2023-03-03T17:46:02.113Z,21.70
2023-03-03T17:49:08.586Z,21.33
2023-03-03T17:51:51.516Z,20.07
2023-03-03T17:54:31.932Z,19.97
2023-03-03T17:57:28.056Z,21.00
2023-03-03T18:00:14.962Z,20.67
2023-03-03T18:03:12.587Z,19.53
2023-03-03T18:05:50.739Z,18.97
2023-03-03T18:09:01.987Z,20.40
2023-03-03T18:12:18.301Z,19.30
2023-03-03T18:15:12.008Z,19.63
2023-03-03T18:18:05.478Z,21.07
2023-03-03T18:20:47.028Z,21.30
2023-03-03T18:23:41.750Z,20.03
2023-03-03T18:26:41.217Z,20.23
2023-03-03T18:29:16.606Z,20.37
2023-03-03T18:31:51.904Z,21.23
2023-03-03T18:34:21.209Z,21.43
2023-03-03T18:36:55.644Z,23.27
2023-03-03T18:39:41.037Z,21.90
2023-03-03T18:42:16.162Z,21.90
2023-03-03T18:44:44.057Z,21.07
2023-03-03T18:47:11.261Z,21.13
2023-03-03T18:49:52.697Z,22.10
2023-03-03T18:52:30.082Z,22.07
2023-03-03T18:55:24.194Z,22.37
2023-03-03T18:58:28.622Z,24.13
2023-03-03T19:01:30.396Z,23.40
2023-03-03T19:04:09.894Z,19.50
2023-03-03T19:06:36.178Z,23.00
2023-03-03T19:09:03.903Z,22.30
2023-03-03T19:11:40.763Z,24.27
2023-03-03T19:14:29.589Z,22.23
2023-03-03T19:16:58.510Z,21.90
2023-03-03T19:19:34.333Z,22.80
2023-03-03T19:22:27.189Z,22.77
2023-03-03T19:25:08.805Z,22.17
2023-03-03T19:28:11.197Z,21.77
2023-03-03T19:30:55.853Z,20.53
2023-03-03T19:33:56.759Z,21.23
2023-03-03T19:36:47.292Z,22.47
2023-03-03T19:39:26.436Z,23.03
2023-03-03T19:42:28.085Z,23.33
2023-03-03T19:45:15.154Z,21.90
2023-03-03T19:48:04.476Z,21.77
2023-03-03T19:50:45.798Z,21.40
2023-03-03T19:53:24.971Z,19.90
2023-03-03T19:56:07.014Z,21.00
2023-03-03T19:58:45.647Z,20.00
2023-03-03T20:01:49.398Z,21.13
2023-03-03T20:04:31.403Z,19.97
2023-03-03T20:07:16.103Z,20.47
2023-03-03T20:09:52.033Z,20.40
2023-03-03T20:12:50.587Z,20.07
2023-03-03T20:15:28.366Z,20.03
2023-03-03T20:18:34.912Z,19.40
2023-03-03T20:21:12.101Z,18.50
2023-03-03T20:24:16.336Z,17.57
2023-03-03T20:27:13.986Z,15.40
2023-03-03T20:29:51.406Z,16.63
2023-03-03T20:33:08.056Z,15.83
2023-03-03T20:35:40.513Z,15.43
2023-03-03T20:38:18.336Z,15.57
2023-03-03T20:41:06.045Z,15.43
2023-03-03T20:43:57.186Z,13.53
2023-03-03T20:46:30.404Z,11.80
2023-03-03T20:49:27.594Z,11.50
2023-03-03T20:52:19.210Z,12.57
2023-03-03T20:55:17.514Z,11.90
2023-03-03T20:57:53.053Z,14.77
2023-03-03T21:00:43.909Z,16.00
2023-03-03T21:03:37.373Z,16.60
2023-03-03T21:06:15.454Z,17.93
2023-03-03T21:08:55.055Z,16.00
2023-03-03T21:11:43.266Z,16.30
2023-03-03T21:14:26.533Z,16.20
2023-03-03T21:16:58.332Z,16.87
2023-03-03T21:19:27.632Z,14.53
2023-03-03T21:21:55.414Z,14.97
2023-03-03T21:24:22.603Z,16.07
2023-03-03T21:26:59.918Z,15.97
2023-03-03T21:29:27.563Z,17.80
2023-03-03T21:31:58.710Z,16.63
2023-03-03T21:34:34.246Z,15.57
2023-03-03T21:37:05.537Z,17.47
2023-03-03T21:39:37.530Z,17.53
2023-03-03T21:42:09.225Z,17.67
2023-03-03T21:44:44.634Z,17.07
2023-03-03T21:47:14.662Z,17.37
2023-03-03T21:49:46.002Z,16.67
2023-03-03T21:52:14.937Z,18.73
2023-03-03T21:54:41.280Z,17.87
2023-03-03T21:57:07.658Z,17.47
2023-03-03T21:59:34.022Z,16.93
2023-03-03T22:02:00.486Z,17.67
2023-03-03T22:04:26.875Z,18.40
2023-03-03T22:06:53.243Z,16.90
2023-03-03T22:09:19.674Z,16.03
2023-03-03T22:11:46.527Z,17.43
2023-03-03T22:14:13.140Z,14.20
2023-03-03T22:16:39.619Z,16.47
2023-03-03T22:19:09.086Z,17.00
2023-03-03T22:21:36.698Z,13.77
2023-03-03T22:24:04.059Z,15.90
2023-03-03T22:26:30.421Z,16.57
2023-03-03T22:28:56.808Z,14.33
2023-03-03T22:31:23.233Z,16.97
2023-03-03T22:33:49.643Z,15.93
2023-03-03T22:36:16.379Z,16.43
2023-03-03T22:38:42.889Z,16.57
2023-03-03T22:41:09.309Z,16.80
2023-03-03T22:43:35.665Z,15.60
2023-03-03T22:46:02.075Z,19.07
2023-03-03T22:48:29.179Z,19.87
2023-03-03T22:50:55.590Z,21.87
2023-03-03T22:53:22.304Z,21.73
2023-03-03T22:55:48.787Z,24.03
2023-03-03T22:58:19.665Z,25.77
2023-03-03T23:00:47.577Z,25.17
2023-03-03T23:03:14.251Z,24.30
2023-03-03T23:05:40.963Z,24.37
2023-03-03T23:08:10.249Z,26.87
2023-03-03T23:10:36.696Z,28.60
2023-03-03T23:13:03.064Z,27.33
2023-03-03T23:15:29.682Z,29.50
2023-03-03T23:17:56.059Z,28.20
2023-03-03T23:20:28.200Z,29.20
2023-03-03T23:22:54.985Z,28.33
2023-03-03T23:25:25.018Z,29.40
2023-03-03T23:27:52.218Z,29.67
2023-03-03T23:30:20.443Z,30.43
2023-03-03T23:32:47.764Z,32.03
2023-03-03T23:35:14.657Z,31.40
2023-03-03T23:37:41.029Z,30.67
2023-03-03T23:40:08.802Z,29.17
2023-03-03T23:42:35.161Z,31.53
2023-03-03T23:45:01.596Z,30.20
2023-03-03T23:47:27.972Z,30.83
2023-03-03T23:49:54.345Z,30.63
2023-03-03T23:52:20.704Z,30.80
2023-03-03T23:54:47.063Z,31.63
2023-03-03T23:57:14.391Z,31.80
2023-03-03T23:59:40.790Z,30.67
